createdAt,value
2022-12-18T00:01:50.508Z,26.65
2022-12-18T00:04:25.305Z,27.15
2022-12-18T00:06:53.821Z,25.25
2022-12-18T00:09:22.332Z,21.95
2022-12-18T00:11:52.744Z,24.92
2022-12-18T00:14:20.966Z,20.35
2022-12-18T00:16:48.797Z,22.00
2022-12-18T00:19:17.038Z,24.60
2022-12-18T00:21:45.431Z,18.52
2022-12-18T00:24:13.609Z,22.05
2022-12-18T00:26:41.652Z,25.27
2022-12-18T00:29:17.490Z,27.45
2022-12-18T00:31:45.482Z,21.23
2022-12-18T00:34:14.268Z,25.63
2022-12-18T00:36:42.735Z,23.73
2022-12-18T00:39:12.362Z,22.00
2022-12-18T00:42:17.052Z,24.88
2022-12-18T00:44:44.840Z,21.95
2022-12-18T00:47:12.621Z,19.88
2022-12-18T00:49:40.559Z,16.05
2022-12-18T00:52:08.652Z,22.33
2022-12-18T00:54:36.813Z,18.33
2022-12-18T00:57:04.940Z,25.15
2022-12-18T00:59:32.815Z,18.27
2022-12-18T01:02:00.825Z,22.20
2022-12-18T01:04:29.546Z,19.67
2022-12-18T01:06:57.517Z,15.40
2022-12-18T01:09:25.704Z,25.15
2022-12-18T01:11:53.797Z,19.85
2022-12-18T01:14:21.811Z,20.20
2022-12-18T01:16:49.786Z,21.48
2022-12-18T01:19:17.718Z,21.20
2022-12-18T01:21:47.923Z,21.90
2022-12-18T01:24:15.850Z,24.25
2022-12-18T01:26:44.040Z,23.85
2022-12-18T01:29:11.968Z,21.05
2022-12-18T01:31:39.974Z,23.38
2022-12-18T01:34:08.262Z,25.17
2022-12-18T01:36:38.542Z,19.15
2022-12-18T01:39:09.154Z,20.17
2022-12-18T01:41:55.676Z,16.70
2022-12-18T01:45:00.813Z,16.83
2022-12-18T01:47:46.398Z,17.98
2022-12-18T01:50:33.058Z,18.98
2022-12-18T01:53:23.509Z,16.92
2022-12-18T01:55:54.308Z,23.02
2022-12-18T01:58:30.090Z,21.35
2022-12-18T02:00:58.057Z,17.98
2022-12-18T02:03:26.119Z,16.95
2022-12-18T02:06:09.369Z,16.85
2022-12-18T02:09:12.138Z,21.25
2022-12-18T02:11:59.611Z,23.67
2022-12-18T02:14:58.190Z,18.98
2022-12-18T02:17:51.500Z,18.63
2022-12-18T02:20:49.134Z,22.27
2022-12-18T02:23:43.047Z,20.38
2022-12-18T02:26:35.626Z,18.63
2022-12-18T02:29:12.913Z,20.13
2022-12-18T02:31:51.050Z,17.30
2022-12-18T02:34:21.243Z,14.73
2022-12-18T02:36:51.219Z,15.60
2022-12-18T02:39:23.091Z,18.13
2022-12-18T02:42:00.718Z,18.55
2022-12-18T02:44:28.681Z,22.77
2022-12-18T02:46:57.027Z,16.05
2022-12-18T02:49:46.102Z,15.40
2022-12-18T02:52:37.531Z,15.93
2022-12-18T02:55:20.838Z,19.30
2022-12-18T02:58:02.714Z,16.55
2022-12-18T03:00:42.859Z,19.10
2022-12-18T03:03:10.952Z,13.55
2022-12-18T03:05:51.475Z,14.25
2022-12-18T03:08:29.239Z,13.43
2022-12-18T03:11:04.426Z,14.23
2022-12-18T03:13:41.070Z,11.52
2022-12-18T03:16:13.329Z,15.75
2022-12-18T03:19:05.317Z,12.10
2022-12-18T03:21:39.887Z,15.15
2022-12-18T03:24:10.974Z,11.52
2022-12-18T03:26:44.547Z,12.38
2022-12-18T03:29:20.291Z,11.73
2022-12-18T03:31:56.902Z,11.93
2022-12-18T03:34:30.646Z,9.20
2022-12-18T03:37:03.207Z,8.63
2022-12-18T03:39:33.853Z,10.52
2022-12-18T03:42:13.626Z,9.27
2022-12-18T03:44:45.370Z,9.38
2022-12-18T03:47:23.972Z,11.65
2022-12-18T03:50:12.830Z,11.02
2022-12-18T03:52:58.619Z,10.93
2022-12-18T03:55:30.798Z,11.32
2022-12-18T03:58:05.071Z,10.60
2022-12-18T04:00:44.796Z,9.48
2022-12-18T04:03:14.978Z,11.05
2022-12-18T04:05:51.572Z,9.13
2022-12-18T04:08:23.324Z,8.68
2022-12-18T04:11:01.294Z,11.75
2022-12-18T04:13:30.916Z,9.27
2022-12-18T04:16:01.558Z,12.40
2022-12-18T04:18:29.775Z,9.73
2022-12-18T04:20:57.618Z,8.52
2022-12-18T04:23:26.089Z,12.63
2022-12-18T04:25:57.451Z,11.93
2022-12-18T04:28:40.273Z,10.23
2022-12-18T04:31:08.940Z,9.93
2022-12-18T04:33:37.636Z,10.88
2022-12-18T04:36:06.301Z,9.32
2022-12-18T04:38:34.409Z,8.73
2022-12-18T04:41:08.444Z,11.60
2022-12-18T04:43:37.116Z,9.57
2022-12-18T04:46:09.215Z,8.45
2022-12-18T04:48:38.322Z,7.25
2022-12-18T04:51:07.740Z,7.40
2022-12-18T04:53:35.691Z,9.82
2022-12-18T04:56:08.471Z,9.15
2022-12-18T04:58:37.742Z,7.83
2022-12-18T05:01:06.337Z,7.40
2022-12-18T05:03:34.935Z,9.00
2022-12-18T05:06:03.537Z,7.32
2022-12-18T05:08:31.761Z,7.18
2022-12-18T05:11:01.367Z,8.80
2022-12-18T05:13:30.007Z,9.18
2022-12-18T05:15:57.858Z,6.50
2022-12-18T05:18:26.718Z,7.90
2022-12-18T05:20:55.108Z,7.68
2022-12-18T05:23:25.126Z,6.05
2022-12-18T05:25:54.833Z,6.90
2022-12-18T05:28:23.621Z,9.63
2022-12-18T05:30:56.830Z,8.35
2022-12-18T05:33:27.144Z,8.18
2022-12-18T05:35:56.811Z,9.10
2022-12-18T05:38:26.955Z,8.10
2022-12-18T05:40:54.995Z,7.15
2022-12-18T05:43:24.108Z,8.70
2022-12-18T05:45:52.559Z,6.45
2022-12-18T05:48:21.048Z,7.10
2022-12-18T05:50:51.262Z,8.80
2022-12-18T05:53:21.615Z,8.63
2022-12-18T05:55:49.738Z,8.07
2022-12-18T05:58:17.673Z,8.73
2022-12-18T06:00:46.787Z,8.35
2022-12-18T06:03:15.508Z,11.77
2022-12-18T06:05:46.184Z,8.30
2022-12-18T06:08:14.695Z,10.65
2022-12-18T06:10:43.154Z,8.15
2022-12-18T06:13:11.069Z,11.43
2022-12-18T06:15:39.373Z,9.55
2022-12-18T06:18:07.476Z,8.68
2022-12-18T06:20:37.608Z,8.05
2022-12-18T06:23:05.393Z,14.38
2022-12-18T06:25:34.205Z,10.60
2022-12-18T06:28:02.153Z,8.73
2022-12-18T06:30:29.996Z,10.55
2022-12-18T06:32:57.821Z,8.82
2022-12-18T06:35:25.747Z,8.70
2022-12-18T06:37:53.503Z,11.45
2022-12-18T06:40:21.704Z,11.60
2022-12-18T06:42:49.770Z,10.23
2022-12-18T06:45:17.680Z,7.20
2022-12-18T06:47:45.532Z,12.20
2022-12-18T06:50:14.263Z,12.38
2022-12-18T06:52:42.161Z,12.32
2022-12-18T06:55:10.254Z,13.35
2022-12-18T06:57:38.633Z,10.77
2022-12-18T07:00:07.733Z,11.32
2022-12-18T07:02:35.775Z,9.50
2022-12-18T07:05:11.107Z,10.02
2022-12-18T07:07:39.268Z,12.70
2022-12-18T07:10:07.317Z,10.57
2022-12-18T07:12:35.341Z,10.82
2022-12-18T07:15:03.944Z,11.57
2022-12-18T07:17:31.983Z,12.73
2022-12-18T07:19:59.935Z,12.52
2022-12-18T07:22:28.189Z,15.60
2022-12-18T07:24:56.603Z,8.95
2022-12-18T07:27:25.052Z,8.52
2022-12-18T07:29:52.913Z,13.60
2022-12-18T07:32:21.001Z,8.85
2022-12-18T07:34:48.829Z,8.88
2022-12-18T07:37:16.893Z,11.95
2022-12-18T07:39:45.476Z,8.57
2022-12-18T07:42:31.899Z,10.05
2022-12-18T07:45:01.425Z,11.82
2022-12-18T07:47:29.734Z,10.55
2022-12-18T07:49:59.089Z,7.82
2022-12-18T07:52:27.760Z,11.05
2022-12-18T07:54:55.790Z,11.25
2022-12-18T07:57:48.883Z,13.73
2022-12-18T08:00:13.362Z,15.00
2022-12-18T08:02:42.314Z,8.32
2022-12-18T08:05:10.680Z,10.95
2022-12-18T08:07:38.946Z,13.73
2022-12-18T08:10:08.204Z,9.35
2022-12-18T08:12:36.375Z,10.30
2022-12-18T08:15:04.986Z,11.15
2022-12-18T08:17:34.281Z,11.35
2022-12-18T08:20:03.084Z,7.78
2022-12-18T08:22:31.969Z,9.48
2022-12-18T08:25:00.154Z,11.70
2022-12-18T08:27:29.908Z,12.13
2022-12-18T08:29:58.905Z,9.40
2022-12-18T08:32:28.802Z,9.23
2022-12-18T08:34:56.933Z,12.55
2022-12-18T08:37:25.074Z,10.38
2022-12-18T08:39:52.816Z,10.73
2022-12-18T08:42:39.000Z,10.98
2022-12-18T08:45:07.544Z,13.43
2022-12-18T08:47:35.745Z,11.00
2022-12-18T08:50:04.303Z,14.80
2022-12-18T08:52:33.820Z,15.75
2022-12-18T08:55:02.091Z,15.63
2022-12-18T08:57:30.148Z,13.15
2022-12-18T08:59:57.961Z,14.77
2022-12-18T09:02:26.225Z,15.85
2022-12-18T09:04:57.589Z,23.17
2022-12-18T09:07:26.057Z,13.98
2022-12-18T09:09:54.066Z,12.50
2022-12-18T09:12:22.041Z,15.70
2022-12-18T09:14:50.112Z,11.45
2022-12-18T09:17:18.204Z,12.43
2022-12-18T09:19:46.059Z,12.07
2022-12-18T09:22:13.907Z,12.75
2022-12-18T09:24:41.752Z,11.18
2022-12-18T09:27:09.558Z,14.48
2022-12-18T09:29:37.716Z,12.85
2022-12-18T09:32:05.806Z,11.73
2022-12-18T09:34:33.890Z,12.98
2022-12-18T09:37:01.725Z,14.20
2022-12-18T09:39:29.580Z,16.27
2022-12-18T09:41:59.708Z,18.35
2022-12-18T09:44:45.065Z,12.93
2022-12-18T09:47:24.787Z,17.77
2022-12-18T09:49:59.211Z,14.32
2022-12-18T09:52:30.107Z,15.52
2022-12-18T09:55:06.551Z,13.15
2022-12-18T09:57:37.941Z,19.42
2022-12-18T10:00:26.161Z,16.88
2022-12-18T10:03:02.324Z,12.57
2022-12-18T10:05:33.057Z,12.45
2022-12-18T10:08:21.091Z,11.73
2022-12-18T10:10:48.911Z,13.43
2022-12-18T10:13:40.471Z,18.25
2022-12-18T10:16:35.276Z,11.32
2022-12-18T10:19:05.489Z,15.68
2022-12-18T10:21:57.745Z,13.10
2022-12-18T10:24:53.999Z,12.73
2022-12-18T10:27:27.268Z,14.70
2022-12-18T10:29:55.853Z,12.40
2022-12-18T10:32:29.751Z,16.88
2022-12-18T10:35:00.671Z,9.90
2022-12-18T10:37:30.956Z,11.00
2022-12-18T10:40:22.418Z,11.63
2022-12-18T10:43:13.951Z,21.85
2022-12-18T10:45:42.805Z,13.02
2022-12-18T10:48:22.666Z,11.32
2022-12-18T10:53:43.776Z,13.30
2022-12-18T10:56:12.100Z,12.73
2022-12-18T10:58:41.093Z,11.23
2022-12-18T11:01:16.816Z,10.80
2022-12-18T11:03:47.442Z,12.02
2022-12-18T11:06:23.086Z,15.88
2022-12-18T11:09:12.848Z,19.10
2022-12-18T11:11:42.395Z,10.50
2022-12-18T11:14:19.146Z,11.55
2022-12-18T11:17:23.697Z,14.35
2022-12-18T11:19:40.910Z,12.55
2022-12-18T11:22:24.453Z,13.25
2022-12-18T11:25:30.163Z,14.95
2022-12-18T11:27:55.556Z,12.27
2022-12-18T11:30:25.669Z,10.27
2022-12-18T11:33:18.695Z,12.90
2022-12-18T11:36:00.949Z,18.83
2022-12-18T11:38:36.474Z,12.50
2022-12-18T11:41:45.905Z,12.60
2022-12-18T11:44:37.964Z,15.52
2022-12-18T11:47:49.347Z,10.27
2022-12-18T11:50:25.138Z,13.80
2022-12-18T11:52:58.275Z,12.68
2022-12-18T11:55:34.571Z,14.98
2022-12-18T11:58:36.385Z,12.50
2022-12-18T12:01:15.465Z,14.15
2022-12-18T12:04:25.229Z,13.25
2022-12-18T12:07:18.301Z,11.63
2022-12-18T12:10:06.660Z,14.68
2022-12-18T12:12:50.362Z,14.75
2022-12-18T12:15:18.298Z,13.85
2022-12-18T12:18:20.132Z,12.77
2022-12-18T12:21:05.251Z,15.27
2022-12-18T12:24:14.539Z,12.95
2022-12-18T12:27:08.560Z,16.70
2022-12-18T12:30:14.240Z,15.68
2022-12-18T12:33:01.318Z,15.93
2022-12-18T12:35:40.038Z,14.52
2022-12-18T12:38:19.742Z,14.57
2022-12-18T12:41:02.890Z,13.43
2022-12-18T12:43:50.573Z,11.93
2022-12-18T12:46:22.509Z,14.13
2022-12-18T12:48:57.348Z,11.73
2022-12-18T12:51:37.636Z,13.07
2022-12-18T12:54:13.072Z,11.50
2022-12-18T12:57:00.429Z,12.52
2022-12-18T12:59:48.172Z,15.73
2022-12-18T13:02:18.938Z,16.75
2022-12-18T13:05:08.675Z,9.98
2022-12-18T13:07:55.025Z,15.13
2022-12-18T13:10:43.459Z,13.93
2022-12-18T13:13:17.204Z,11.73
2022-12-18T13:16:07.469Z,11.18
2022-12-18T13:18:35.800Z,10.60
2022-12-18T13:21:19.558Z,15.07
2022-12-18T13:23:47.785Z,11.98
2022-12-18T13:26:21.942Z,15.35
2022-12-18T13:28:57.139Z,13.75
2022-12-18T13:31:30.798Z,12.75
2022-12-18T13:37:17.884Z,10.70
2022-12-18T13:39:46.084Z,13.90
2022-12-18T13:42:35.279Z,12.57
2022-12-18T13:45:23.201Z,15.27
2022-12-18T13:47:51.390Z,11.20
2022-12-18T13:50:28.558Z,12.93
2022-12-18T13:53:00.490Z,12.88
2022-12-18T13:55:28.541Z,11.85
2022-12-18T13:58:06.690Z,11.27
2022-12-18T14:00:35.549Z,12.82
2022-12-18T14:03:03.791Z,17.05
2022-12-18T14:05:33.938Z,12.73
2022-12-18T14:08:06.987Z,15.88
2022-12-18T14:10:48.862Z,12.93
2022-12-18T14:13:35.587Z,16.40
2022-12-18T14:16:05.893Z,12.27
2022-12-18T14:18:45.644Z,10.65
2022-12-18T14:21:24.280Z,11.10
2022-12-18T14:24:06.763Z,12.55
2022-12-18T14:26:34.935Z,10.85
2022-12-18T14:29:24.384Z,11.65
2022-12-18T14:32:14.985Z,12.75
2022-12-18T14:34:55.128Z,12.00
2022-12-18T14:37:26.082Z,13.38
2022-12-18T14:40:08.645Z,14.85
2022-12-18T14:42:38.219Z,13.02
2022-12-18T14:45:42.169Z,14.93
2022-12-18T14:48:15.596Z,12.55
2022-12-18T14:50:56.966Z,12.48
2022-12-18T14:53:34.123Z,12.80
2022-12-18T14:56:03.248Z,18.13
2022-12-18T14:58:31.263Z,12.63
2022-12-18T15:00:59.224Z,12.52
2022-12-18T15:03:27.076Z,12.48
2022-12-18T15:05:55.160Z,17.13
2022-12-18T15:08:31.436Z,16.15
2022-12-18T15:10:59.894Z,13.82
2022-12-18T15:13:28.043Z,14.27
2022-12-18T15:16:01.346Z,16.35
2022-12-18T15:21:10.221Z,13.48
2022-12-18T15:23:52.289Z,12.98
2022-12-18T15:26:22.890Z,13.07
2022-12-18T15:28:52.583Z,14.27
2022-12-18T15:31:35.876Z,14.07
2022-12-18T15:34:09.375Z,14.70
2022-12-18T15:36:37.597Z,14.55
2022-12-18T15:39:06.687Z,13.00
2022-12-18T15:41:36.654Z,12.55
2022-12-18T15:44:24.594Z,11.15
2022-12-18T15:46:52.458Z,15.80
2022-12-18T15:49:20.321Z,16.80
2022-12-18T15:51:53.738Z,16.02
2022-12-18T15:54:40.811Z,14.10
2022-12-18T15:57:24.791Z,17.33
2022-12-18T16:02:23.919Z,18.65
2022-12-18T16:04:53.283Z,19.92
2022-12-18T16:07:24.585Z,22.95
2022-12-18T16:09:53.483Z,21.60
2022-12-18T16:12:25.390Z,24.13
2022-12-18T16:14:53.488Z,23.10
2022-12-18T16:17:21.822Z,25.90
2022-12-18T16:19:49.720Z,29.52
2022-12-18T16:22:25.931Z,25.67
2022-12-18T16:24:55.312Z,26.88
2022-12-18T16:27:23.849Z,29.38
2022-12-18T16:29:51.756Z,28.10
2022-12-18T16:32:23.297Z,28.25
2022-12-18T16:34:51.271Z,27.98
2022-12-18T16:37:18.942Z,30.60
2022-12-18T16:39:46.893Z,30.80
2022-12-18T16:42:20.159Z,32.05
2022-12-18T16:47:18.383Z,28.30
2022-12-18T16:49:46.509Z,28.60
2022-12-18T16:52:15.099Z,30.45
2022-12-18T16:54:43.065Z,33.75
2022-12-18T16:57:14.221Z,34.88
2022-12-18T16:59:42.097Z,28.75
2022-12-18T17:02:17.148Z,37.33
2022-12-18T17:04:47.393Z,29.25
2022-12-18T17:07:16.149Z,32.88
2022-12-18T17:09:44.066Z,29.77
2022-12-18T17:12:11.948Z,31.00
2022-12-18T17:14:39.777Z,36.33
2022-12-18T17:17:20.988Z,26.13
2022-12-18T17:19:50.058Z,35.63
2022-12-18T17:22:18.179Z,32.60
2022-12-18T17:24:47.454Z,29.35
2022-12-18T17:27:15.532Z,35.40
2022-12-18T17:29:47.998Z,33.55
2022-12-18T17:32:17.543Z,36.88
2022-12-18T17:34:45.615Z,28.98
2022-12-18T17:37:13.613Z,36.40
2022-12-18T17:39:42.276Z,36.65
2022-12-18T17:42:14.874Z,36.03
2022-12-18T17:44:44.143Z,33.95
2022-12-18T17:47:13.364Z,35.53
2022-12-18T17:49:41.370Z,37.60
2022-12-18T17:52:09.221Z,34.58
2022-12-18T17:54:39.938Z,39.22
2022-12-18T17:57:08.099Z,40.30
2022-12-18T17:59:35.969Z,33.60
2022-12-18T18:02:04.138Z,37.08
2022-12-18T18:04:32.868Z,27.65
2022-12-18T18:07:00.808Z,32.40
2022-12-18T18:09:28.617Z,33.88
2022-12-18T18:12:15.790Z,37.38
2022-12-18T18:14:43.749Z,28.15
2022-12-18T18:17:11.705Z,33.13
2022-12-18T18:19:39.692Z,91.70
2022-12-18T18:22:08.395Z,57.40
2022-12-18T18:24:36.439Z,67.55
2022-12-18T18:27:04.480Z,65.78
2022-12-18T18:29:32.262Z,46.60
2022-12-18T18:32:00.260Z,37.83
2022-12-18T18:34:30.767Z,36.53
2022-12-18T18:36:59.219Z,24.35
2022-12-18T18:39:27.298Z,17.65
2022-12-18T18:41:57.930Z,17.83
2022-12-18T18:44:26.571Z,19.63
2022-12-18T18:46:56.642Z,17.77
2022-12-18T18:49:27.564Z,17.98
2022-12-18T18:51:58.074Z,16.05
2022-12-18T18:54:26.470Z,19.58
2022-12-18T18:59:43.048Z,17.17
2022-12-18T19:02:13.488Z,14.63
2022-12-18T19:04:45.545Z,19.25
2022-12-18T19:07:26.134Z,17.05
2022-12-18T19:12:52.950Z,15.80
2022-12-18T19:15:22.138Z,12.80
2022-12-18T19:17:50.126Z,14.82
2022-12-18T19:20:18.400Z,21.77
2022-12-18T19:22:54.836Z,17.17
2022-12-18T19:25:38.316Z,21.15
2022-12-18T19:28:15.349Z,16.80
2022-12-18T19:30:54.515Z,19.23
2022-12-18T19:33:44.855Z,17.23
2022-12-18T19:36:25.526Z,17.70
2022-12-18T19:41:25.597Z,20.00
2022-12-18T19:43:55.697Z,22.05
2022-12-18T19:46:24.627Z,19.00
2022-12-18T19:48:52.977Z,18.92
2022-12-18T19:51:24.703Z,20.58
2022-12-18T19:53:58.416Z,25.02
2022-12-18T19:56:29.800Z,27.63
2022-12-18T19:58:57.893Z,20.60
2022-12-18T20:01:27.443Z,19.33
2022-12-18T20:03:57.479Z,20.52
2022-12-18T20:06:46.102Z,33.85
2022-12-18T20:09:14.137Z,37.45
2022-12-18T20:11:43.164Z,40.30
2022-12-18T20:14:12.557Z,22.77
2022-12-18T20:16:41.877Z,36.13
2022-12-18T20:19:12.429Z,26.45
2022-12-18T20:21:41.451Z,38.28
2022-12-18T20:24:09.409Z,30.92
2022-12-18T20:26:37.270Z,29.38
2022-12-18T20:29:05.101Z,25.02
2022-12-18T20:31:33.138Z,26.80
2022-12-18T20:34:02.696Z,25.05
2022-12-18T20:36:34.084Z,24.92
2022-12-18T20:39:05.297Z,23.77
2022-12-18T20:41:38.258Z,27.17
2022-12-18T20:44:21.630Z,25.27
2022-12-18T20:47:00.335Z,23.15
2022-12-18T20:49:31.859Z,27.95
2022-12-18T20:51:59.819Z,22.00
2022-12-18T20:54:28.035Z,27.42
2022-12-18T20:56:56.477Z,26.77
2022-12-18T20:59:25.746Z,28.58
2022-12-18T21:01:55.172Z,25.45
2022-12-18T21:04:23.663Z,23.75
2022-12-18T21:06:57.822Z,28.05
2022-12-18T21:09:29.981Z,34.17
2022-12-18T21:12:29.306Z,30.45
2022-12-18T21:15:01.822Z,21.08
2022-12-18T21:17:34.585Z,24.38
2022-12-18T21:20:17.487Z,25.48
2022-12-18T21:22:46.963Z,31.95
2022-12-18T21:25:14.913Z,25.42
2022-12-18T21:27:42.909Z,25.60
2022-12-18T21:30:10.901Z,26.92
2022-12-18T21:32:38.687Z,24.17
2022-12-18T21:35:06.479Z,21.00
2022-12-18T21:37:34.432Z,20.35
2022-12-18T21:40:02.532Z,23.30
2022-12-18T21:42:48.869Z,25.73
2022-12-18T21:45:16.673Z,26.05
2022-12-18T21:47:44.509Z,15.90
2022-12-18T21:50:12.904Z,18.38
2022-12-18T21:52:41.041Z,24.55
2022-12-18T21:55:10.253Z,19.27
2022-12-18T21:57:39.333Z,21.60
2022-12-18T22:00:18.727Z,18.13
2022-12-18T22:03:17.645Z,15.95
2022-12-18T22:05:37.023Z,22.77
2022-12-18T22:08:05.192Z,20.80
2022-12-18T22:10:33.339Z,20.40
2022-12-18T22:13:01.535Z,26.65
2022-12-18T22:15:29.466Z,23.25
2022-12-18T22:18:00.263Z,23.52
2022-12-18T22:20:30.045Z,22.70
2022-12-18T22:22:58.623Z,20.25
2022-12-18T22:25:27.750Z,19.70
2022-12-18T22:28:14.014Z,16.98
2022-12-18T22:30:43.250Z,15.88
2022-12-18T22:33:11.277Z,17.08
2022-12-18T22:35:39.095Z,16.65
2022-12-18T22:38:07.007Z,18.23
2022-12-18T22:40:34.783Z,16.27
2022-12-18T22:43:02.762Z,22.17
2022-12-18T22:45:30.724Z,16.75
2022-12-18T22:48:00.506Z,15.63
2022-12-18T22:50:28.337Z,17.95
2022-12-18T22:52:56.268Z,14.40
2022-12-18T22:55:24.104Z,18.95
2022-12-18T22:57:52.274Z,17.95
2022-12-18T23:00:24.281Z,20.33
2022-12-18T23:03:00.336Z,20.58
2022-12-18T23:05:30.892Z,15.32
2022-12-18T23:07:59.172Z,14.95
2022-12-18T23:10:27.833Z,15.68
2022-12-18T23:12:55.772Z,20.45
2022-12-18T23:15:27.781Z,21.42
2022-12-18T23:17:58.252Z,20.85
2022-12-18T23:20:27.469Z,16.95
2022-12-18T23:22:55.621Z,17.98
2022-12-18T23:25:23.755Z,17.42
2022-12-18T23:27:51.532Z,20.35
2022-12-18T23:30:20.272Z,14.77
2022-12-18T23:32:48.448Z,18.02
2022-12-18T23:35:17.439Z,15.93
2022-12-18T23:37:59.138Z,21.45
2022-12-18T23:40:29.544Z,20.15
2022-12-18T23:42:59.727Z,20.08
2022-12-18T23:45:27.777Z,19.25
2022-12-18T23:47:55.460Z,22.55
2022-12-18T23:50:28.866Z,20.30
2022-12-18T23:53:00.815Z,23.25
2022-12-18T23:55:37.530Z,15.75
2022-12-18T23:58:05.248Z,20.85
